Pagina principale
METAR-TAF:

METAR-TAF

Aeroporti :

Aeroporto Internazionale del Kuwait

Madinat al-Kuwait, Kuwait

latitudine: 29-13N, longitudine: 047-59E, altezza: 55 m

Osservazione

Il bollettino è stato emesso 49 minuti fa, alle 03:00 UTC
Vento 4 kt da ovest/nord-ovest
Temperature 13°C
Umidità 100%
Pressione 1020 hPa
Visibilità 10 km o più
nessuna nube inferiore a 1500 m e nessun cumulonembo

METAR: OKBK 210300Z 30004KT CAVOK 13/13 Q1020 NOSIG

Ora: 06:49 (03:49 UTC)

Previsione

Il bollettino è stato emesso 5 ore e 4 minuti fa, alle 22:45 UTC
Previsione valida dal 21 alle 00 UTC al 22 alle 06 UTC
Vento 12 kt da ovest/nord-ovest
Visibilità 10 km o più
nessuna nube inferiore a 1500 m e nessun cumulonembo

TAF: OKBK 202245Z 2100/2206 30012KT CAVOK

Osservazioni e previsioni meteorologiche di più di 4000 aeroporti (messaggi METAR e TAF).

Le stazioni disponibili sono rappresentate dai dischi gialli e rossi sulla carta.

Puntare il mouse per vedere il nome della stazione.

Clicca sopra per visualizzare le osservazioni e previsioni meteorologiche.

Per cambiare la mappa : fare clic sui pulsanti verdi con una croce nera per ingrandire, il pulsante verde con un trattino per diminuire, o sulla freccia verde per le mappe adiacenti.


METAR-TAF: